sensor_id;sensor_type;location;lat;lon;timestamp;pressure;altitude;pressure_sealevel;temperature;humidity
5966;BME280;3009;43.224;27.976;2023-01-30T00:01:13;100873.38;;;-0.61;73.27
5966;BME280;3009;43.224;27.976;2023-01-30T00:03:44;100869.56;;;-0.65;72.58
5966;BME280;3009;43.224;27.976;2023-01-30T00:06:13;100867.31;;;-0.62;72.85
5966;BME280;3009;43.224;27.976;2023-01-30T00:08:43;100873.28;;;-0.73;73.13
5966;BME280;3009;43.224;27.976;2023-01-30T00:11:14;100874.91;;;-0.72;73.49
5966;BME280;3009;43.224;27.976;2023-01-30T00:13:43;100882.16;;;-0.67;73.68
5966;BME280;3009;43.224;27.976;2023-01-30T00:16:13;100884.13;;;-0.63;74.65
5966;BME280;3009;43.224;27.976;2023-01-30T00:18:42;100882.06;;;-0.61;74.67
5966;BME280;3009;43.224;27.976;2023-01-30T00:21:12;100884.47;;;-0.59;74.71
5966;BME280;3009;43.224;27.976;2023-01-30T00:23:42;100887.25;;;-0.54;75.31
5966;BME280;3009;43.224;27.976;2023-01-30T00:26:13;100867.53;;;-0.63;75.02
5966;BME280;3009;43.224;27.976;2023-01-30T00:28:42;100867.13;;;-0.67;75.34
5966;BME280;3009;43.224;27.976;2023-01-30T00:31:10;100877.75;;;-0.74;76.18
5966;BME280;3009;43.224;27.976;2023-01-30T00:33:42;100868.75;;;-0.66;75.96
5966;BME280;3009;43.224;27.976;2023-01-30T00:36:10;100871.06;;;-0.58;76.26
5966;BME280;3009;43.224;27.976;2023-01-30T00:38:39;100867.13;;;-0.67;76.17
5966;BME280;3009;43.224;27.976;2023-01-30T00:41:07;100867.88;;;-0.60;75.77
5966;BME280;3009;43.224;27.976;2023-01-30T00:43:43;100859.41;;;-0.62;75.99
5966;BME280;3009;43.224;27.976;2023-01-30T00:46:31;100859.09;;;-0.54;76.10
5966;BME280;3009;43.224;27.976;2023-01-30T00:49:18;100860.25;;;-0.49;75.94
5966;BME280;3009;43.224;27.976;2023-01-30T00:51:47;100867.09;;;-0.48;76.19
5966;BME280;3009;43.224;27.976;2023-01-30T00:54:16;100853.53;;;-0.45;75.94
5966;BME280;3009;43.224;27.976;2023-01-30T00:56:46;100855.34;;;-0.46;75.64
5966;BME280;3009;43.224;27.976;2023-01-30T00:59:17;100848.78;;;-0.55;76.23
5966;BME280;3009;43.224;27.976;2023-01-30T01:01:48;100856.78;;;-0.50;76.26
5966;BME280;3009;43.224;27.976;2023-01-30T01:04:19;100851.47;;;-0.43;75.87
5966;BME280;3009;43.224;27.976;2023-01-30T01:06:51;100854.38;;;-0.51;75.77
5966;BME280;3009;43.224;27.976;2023-01-30T01:09:19;100848.88;;;-0.62;76.60
5966;BME280;3009;43.224;27.976;2023-01-30T01:11:48;100842.56;;;-0.79;77.91
5966;BME280;3009;43.224;27.976;2023-01-30T01:14:20;100837.31;;;-0.79;77.61
5966;BME280;3009;43.224;27.976;2023-01-30T01:16:49;100848.25;;;-0.64;77.10
5966;BME280;3009;43.224;27.976;2023-01-30T01:19:18;100846.06;;;-0.67;77.03
5966;BME280;3009;43.224;27.976;2023-01-30T01:21:47;100841.56;;;-0.78;77.11
5966;BME280;3009;43.224;27.976;2023-01-30T01:24:15;100841.13;;;-0.75;77.19
5966;BME280;3009;43.224;27.976;2023-01-30T01:26:45;100835.13;;;-0.82;76.62
5966;BME280;3009;43.224;27.976;2023-01-30T01:29:32;100837.59;;;-0.69;76.76
5966;BME280;3009;43.224;27.976;2023-01-30T01:32:03;100833.13;;;-0.68;76.30
5966;BME280;3009;43.224;27.976;2023-01-30T01:34:32;100829.53;;;-0.74;76.81
5966;BME280;3009;43.224;27.976;2023-01-30T01:37:04;100832.50;;;-0.82;76.66
5966;BME280;3009;43.224;27.976;2023-01-30T01:39:36;100842.13;;;-0.76;76.53
5966;BME280;3009;43.224;27.976;2023-01-30T01:42:23;100837.38;;;-0.67;75.95
5966;BME280;3009;43.224;27.976;2023-01-30T01:45:13;100845.72;;;-0.70;76.22
5966;BME280;3009;43.224;27.976;2023-01-30T01:47:48;100843.59;;;-0.62;75.27
5966;BME280;3009;43.224;27.976;2023-01-30T01:50:21;100833.50;;;-0.65;75.61
5966;BME280;3009;43.224;27.976;2023-01-30T01:52:53;100824.66;;;-0.70;75.22
5966;BME280;3009;43.224;27.976;2023-01-30T01:55:24;100816.69;;;-0.82;75.84
5966;BME280;3009;43.224;27.976;2023-01-30T01:57:58;100825.53;;;-0.77;75.68
5966;BME280;3009;43.224;27.976;2023-01-30T02:00:32;100824.72;;;-0.77;75.49
5966;BME280;3009;43.224;27.976;2023-01-30T02:03:05;100817.25;;;-0.62;75.17
5966;BME280;3009;43.224;27.976;2023-01-30T02:05:39;100821.34;;;-0.66;75.24
5966;BME280;3009;43.224;27.976;2023-01-30T02:08:11;100822.31;;;-0.79;75.48
5966;BME280;3009;43.224;27.976;2023-01-30T02:10:47;100826.47;;;-0.71;75.40
5966;BME280;3009;43.224;27.976;2023-01-30T02:13:17;100826.78;;;-0.79;75.66
5966;BME280;3009;43.224;27.976;2023-01-30T02:15:48;100824.72;;;-0.77;75.76
5966;BME280;3009;43.224;27.976;2023-01-30T02:18:16;100828.69;;;-0.86;76.17
5966;BME280;3009;43.224;27.976;2023-01-30T02:20:56;100827.22;;;-0.82;76.36
5966;BME280;3009;43.224;27.976;2023-01-30T02:23:46;100821.50;;;-0.79;77.30
5966;BME280;3009;43.224;27.976;2023-01-30T02:26:46;100831.59;;;-0.76;77.52
5966;BME280;3009;43.224;27.976;2023-01-30T02:30:03;100813.75;;;-0.74;77.51
5966;BME280;3009;43.224;27.976;2023-01-30T02:32:45;100818.84;;;-0.61;77.13
5966;BME280;3009;43.224;27.976;2023-01-30T02:35:23;100815.19;;;-0.60;76.63
5966;BME280;3009;43.224;27.976;2023-01-30T02:38:01;100817.94;;;-0.55;76.21
5966;BME280;3009;43.224;27.976;2023-01-30T02:40:40;100817.59;;;-0.58;75.79
5966;BME280;3009;43.224;27.976;2023-01-30T02:43:22;100816.88;;;-0.65;76.14
5966;BME280;3009;43.224;27.976;2023-01-30T02:45:57;100813.69;;;-0.67;76.41
5966;BME280;3009;43.224;27.976;2023-01-30T02:48:34;100810.88;;;-0.73;77.58
5966;BME280;3009;43.224;27.976;2023-01-30T02:51:06;100816.88;;;-0.65;77.44
5966;BME280;3009;43.224;27.976;2023-01-30T02:53:37;100822.25;;;-0.72;77.82
5966;BME280;3009;43.224;27.976;2023-01-30T02:56:06;100809.06;;;-0.72;77.59
5966;BME280;3009;43.224;27.976;2023-01-30T02:58:39;100820.28;;;-0.77;78.48
5966;BME280;3009;43.224;27.976;2023-01-30T03:01:26;100811.72;;;-0.72;78.61
5966;BME280;3009;43.224;27.976;2023-01-30T03:04:14;100805.84;;;-0.74;78.61
5966;BME280;3009;43.224;27.976;2023-01-30T03:07:05;100810.97;;;-0.79;79.70
5966;BME280;3009;43.224;27.976;2023-01-30T03:09:44;100811.28;;;-0.87;80.00
5966;BME280;3009;43.224;27.976;2023-01-30T03:12:17;100809.81;;;-0.83;79.68
5966;BME280;3009;43.224;27.976;2023-01-30T03:14:53;100811.06;;;-0.86;79.58
5966;BME280;3009;43.224;27.976;2023-01-30T03:17:23;100811.66;;;-1.02;80.67
5966;BME280;3009;43.224;27.976;2023-01-30T03:20:00;100809.50;;;-0.94;80.73
5966;BME280;3009;43.224;27.976;2023-01-30T03:22:29;100822.97;;;-1.02;81.03
5966;BME280;3009;43.224;27.976;2023-01-30T03:24:57;100801.84;;;-0.95;81.17
5966;BME280;3009;43.224;27.976;2023-01-30T03:27:28;100810.84;;;-1.03;81.33
5966;BME280;3009;43.224;27.976;2023-01-30T03:30:01;100810.84;;;-1.03;81.91
5966;BME280;3009;43.224;27.976;2023-01-30T03:32:29;100811.94;;;-0.92;81.70
5966;BME280;3009;43.224;27.976;2023-01-30T03:34:59;100807.25;;;-0.90;81.85
5966;BME280;3009;43.224;27.976;2023-01-30T03:37:28;100811.06;;;-1.04;82.63
5966;BME280;3009;43.224;27.976;2023-01-30T03:39:57;100804.34;;;-1.00;83.20
5966;BME280;3009;43.224;27.976;2023-01-30T03:42:27;100803.31;;;-0.99;83.39
5966;BME280;3009;43.224;27.976;2023-01-30T03:44:57;100801.13;;;-1.02;84.17
5966;BME280;3009;43.224;27.976;2023-01-30T03:47:26;100802.94;;;-1.03;84.28
5966;BME280;3009;43.224;27.976;2023-01-30T03:49:54;100806.00;;;-1.06;85.30
5966;BME280;3009;43.224;27.976;2023-01-30T03:52:24;100801.06;;;-1.14;86.43
5966;BME280;3009;43.224;27.976;2023-01-30T03:54:53;100798.03;;;-1.18;86.54
5966;BME280;3009;43.224;27.976;2023-01-30T03:57:22;100798.13;;;-1.25;87.10
5966;BME280;3009;43.224;27.976;2023-01-30T03:59:50;100790.97;;;-1.17;87.33
5966;BME280;3009;43.224;27.976;2023-01-30T04:02:19;100788.63;;;-1.26;87.59
5966;BME280;3009;43.224;27.976;2023-01-30T04:04:50;100794.47;;;-1.23;88.27
5966;BME280;3009;43.224;27.976;2023-01-30T04:07:21;100789.34;;;-1.18;87.91
5966;BME280;3009;43.224;27.976;2023-01-30T04:09:50;100790.09;;;-1.30;87.61
5966;BME280;3009;43.224;27.976;2023-01-30T04:12:19;100787.25;;;-1.28;88.59
5966;BME280;3009;43.224;27.976;2023-01-30T04:14:48;100785.72;;;-1.17;88.27
5966;BME280;3009;43.224;27.976;2023-01-30T04:17:17;100784.25;;;-1.13;87.88
5966;BME280;3009;43.224;27.976;2023-01-30T04:19:45;100790.22;;;-1.06;87.95
5966;BME280;3009;43.224;27.976;2023-01-30T04:22:14;100789.78;;;-1.03;88.35
5966;BME280;3009;43.224;27.976;2023-01-30T04:24:42;100793.81;;;-1.00;88.22
5966;BME280;3009;43.224;27.976;2023-01-30T04:27:12;100789.94;;;-0.98;87.79
5966;BME280;3009;43.224;27.976;2023-01-30T04:29:41;100795.66;;;-1.01;87.86
5966;BME280;3009;43.224;27.976;2023-01-30T04:32:09;100799.06;;;-1.00;88.16
5966;BME280;3009;43.224;27.976;2023-01-30T04:34:38;100792.56;;;-0.98;87.62
5966;BME280;3009;43.224;27.976;2023-01-30T04:37:07;100793.59;;;-0.99;87.74
5966;BME280;3009;43.224;27.976;2023-01-30T04:39:36;100791.41;;;-1.02;87.95
5966;BME280;3009;43.224;27.976;2023-01-30T04:42:05;100791.53;;;-1.15;89.19
5966;BME280;3009;43.224;27.976;2023-01-30T04:44:39;100793.16;;;-1.14;89.79
5966;BME280;3009;43.224;27.976;2023-01-30T04:47:07;100796.53;;;-1.07;90.70
5966;BME280;3009;43.224;27.976;2023-01-30T04:49:38;100791.50;;;-1.09;90.21
5966;BME280;3009;43.224;27.976;2023-01-30T04:52:07;100800.75;;;-1.06;90.36
5966;BME280;3009;43.224;27.976;2023-01-30T04:54:38;100797.84;;;-0.98;90.61
5966;BME280;3009;43.224;27.976;2023-01-30T04:57:09;100790.97;;;-0.99;91.26
5966;BME280;3009;43.224;27.976;2023-01-30T04:59:39;100780.00;;;-0.96;91.30
5966;BME280;3009;43.224;27.976;2023-01-30T05:02:15;100794.59;;;-1.00;91.06
5966;BME280;3009;43.224;27.976;2023-01-30T05:04:44;100785.56;;;-1.04;90.99
5966;BME280;3009;43.224;27.976;2023-01-30T05:07:12;100783.22;;;-1.12;91.07
5966;BME280;3009;43.224;27.976;2023-01-30T05:09:40;100779.00;;;-1.13;91.14
5966;BME280;3009;43.224;27.976;2023-01-30T05:12:09;100788.34;;;-1.17;90.18
5966;BME280;3009;43.224;27.976;2023-01-30T05:14:39;100783.50;;;-1.02;90.01
5966;BME280;3009;43.224;27.976;2023-01-30T05:17:09;100781.44;;;-1.00;89.10
5966;BME280;3009;43.224;27.976;2023-01-30T05:19:37;100782.84;;;-0.97;88.79
5966;BME280;3009;43.224;27.976;2023-01-30T05:22:08;100782.41;;;-0.94;88.76
5966;BME280;3009;43.224;27.976;2023-01-30T05:24:36;100788.47;;;-0.94;89.46
5966;BME280;3009;43.224;27.976;2023-01-30T05:27:05;100789.34;;;-1.00;88.80
5966;BME280;3009;43.224;27.976;2023-01-30T05:29:35;100777.66;;;-1.04;89.27
5966;BME280;3009;43.224;27.976;2023-01-30T05:32:10;100786.66;;;-1.12;90.21
5966;BME280;3009;43.224;27.976;2023-01-30T05:34:40;100786.94;;;-1.01;91.10
5966;BME280;3009;43.224;27.976;2023-01-30T05:37:08;100786.72;;;-1.00;91.02
5966;BME280;3009;43.224;27.976;2023-01-30T05:39:38;100785.81;;;-0.94;91.58
5966;BME280;3009;43.224;27.976;2023-01-30T05:42:06;100791.09;;;-0.94;91.23
5966;BME280;3009;43.224;27.976;2023-01-30T05:44:34;100789.06;;;-0.92;91.10
5966;BME280;3009;43.224;27.976;2023-01-30T05:47:03;100789.34;;;-1.00;91.21
5966;BME280;3009;43.224;27.976;2023-01-30T05:49:33;100795.03;;;-1.03;91.46
5966;BME280;3009;43.224;27.976;2023-01-30T05:52:01;100792.56;;;-0.98;90.89
5966;BME280;3009;43.224;27.976;2023-01-30T05:54:30;100797.25;;;-1.00;89.67
5966;BME280;3009;43.224;27.976;2023-01-30T05:56:58;100796.56;;;-0.95;88.71
5966;BME280;3009;43.224;27.976;2023-01-30T05:59:26;100789.56;;;-1.01;87.80
5966;BME280;3009;43.224;27.976;2023-01-30T06:01:54;100797.97;;;-0.93;87.73
5966;BME280;3009;43.224;27.976;2023-01-30T06:04:23;100789.34;;;-1.00;87.57
5966;BME280;3009;43.224;27.976;2023-01-30T06:06:53;100800.53;;;-1.04;87.71
5966;BME280;3009;43.224;27.976;2023-01-30T06:09:21;100790.22;;;-1.06;87.48
5966;BME280;3009;43.224;27.976;2023-01-30T06:11:50;100791.72;;;-1.10;87.59
5966;BME280;3009;43.224;27.976;2023-01-30T06:14:20;100798.00;;;-1.11;87.20
5966;BME280;3009;43.224;27.976;2023-01-30T06:16:49;100780.88;;;-1.20;87.32
5966;BME280;3009;43.224;27.976;2023-01-30T06:19:18;100785.06;;;-1.13;87.24
5966;BME280;3009;43.224;27.976;2023-01-30T06:21:48;100788.84;;;-1.09;87.30
5966;BME280;3009;43.224;27.976;2023-01-30T06:24:18;100795.66;;;-1.01;86.89
5966;BME280;3009;43.224;27.976;2023-01-30T06:26:47;100784.38;;;-0.90;88.18
5966;BME280;3009;43.224;27.976;2023-01-30T06:29:22;100783.47;;;-0.83;87.34
5966;BME280;3009;43.224;27.976;2023-01-30T06:31:51;100781.72;;;-0.90;86.82
5966;BME280;3009;43.224;27.976;2023-01-30T06:34:22;100781.00;;;-0.78;86.70
5966;BME280;3009;43.224;27.976;2023-01-30T06:37:19;100780.91;;;-0.72;85.79
5966;BME280;3009;43.224;27.976;2023-01-30T06:39:48;100776.94;;;-0.62;85.27
5966;BME280;3009;43.224;27.976;2023-01-30T06:42:19;100779.72;;;-0.57;84.90
5966;BME280;3009;43.224;27.976;2023-01-30T06:44:47;100783.69;;;-0.66;84.18
5966;BME280;3009;43.224;27.976;2023-01-30T06:47:16;100765.47;;;-0.68;83.62
5966;BME280;3009;43.224;27.976;2023-01-30T06:49:46;100781.03;;;-0.36;85.07
5966;BME280;3009;43.224;27.976;2023-01-30T06:52:16;100773.22;;;-0.73;82.91
5966;BME280;3009;43.224;27.976;2023-01-30T06:54:44;100770.53;;;-0.55;83.71
5966;BME280;3009;43.224;27.976;2023-01-30T06:57:14;100775.81;;;-0.55;82.98
5966;BME280;3009;43.224;27.976;2023-01-30T06:59:42;100774.75;;;-0.65;82.54
5966;BME280;3009;43.224;27.976;2023-01-30T07:02:12;100767.06;;;-0.67;83.20
5966;BME280;3009;43.224;27.976;2023-01-30T07:04:41;100771.66;;;-0.62;82.40
5966;BME280;3009;43.224;27.976;2023-01-30T07:07:09;100766.88;;;-0.54;82.36
5966;BME280;3009;43.224;27.976;2023-01-30T07:09:37;100768.41;;;-0.46;84.69
5966;BME280;3009;43.224;27.976;2023-01-30T07:12:05;100763.69;;;-0.13;84.86
5966;BME280;3009;43.224;27.976;2023-01-30T07:14:35;100769.06;;;-0.08;82.38
5966;BME280;3009;43.224;27.976;2023-01-30T07:17:03;100758.31;;;0.05;82.81
5966;BME280;3009;43.224;27.976;2023-01-30T07:19:31;100759.81;;;0.13;82.68
5966;BME280;3009;43.224;27.976;2023-01-30T07:21:59;100759.00;;;0.12;81.27
5966;BME280;3009;43.224;27.976;2023-01-30T07:24:29;100761.19;;;0.04;81.58
5966;BME280;3009;43.224;27.976;2023-01-30T07:26:58;100761.97;;;0.04;81.69
5966;BME280;3009;43.224;27.976;2023-01-30T07:29:26;100759.56;;;0.03;80.79
5966;BME280;3009;43.224;27.976;2023-01-30T07:31:56;100759.44;;;0.21;81.02
5966;BME280;3009;43.224;27.976;2023-01-30T07:34:24;100756.72;;;0.40;80.75
5966;BME280;3009;43.224;27.976;2023-01-30T07:36:52;100750.97;;;0.31;79.88
5966;BME280;3009;43.224;27.976;2023-01-30T07:39:20;100751.91;;;0.48;80.33
5966;BME280;3009;43.224;27.976;2023-01-30T07:41:48;100744.06;;;0.53;79.44
5966;BME280;3009;43.224;27.976;2023-01-30T07:44:17;100744.41;;;0.57;79.58
5966;BME280;3009;43.224;27.976;2023-01-30T07:46:45;100749.81;;;0.50;80.00
5966;BME280;3009;43.224;27.976;2023-01-30T07:49:15;100742.59;;;0.58;79.92
5966;BME280;3009;43.224;27.976;2023-01-30T07:51:43;100745.91;;;0.53;79.97
5966;BME280;3009;43.224;27.976;2023-01-30T07:54:11;100751.28;;;0.58;80.30
5966;BME280;3009;43.224;27.976;2023-01-30T07:56:40;100748.75;;;0.63;80.77
5966;BME280;3009;43.224;27.976;2023-01-30T07:59:09;100746.47;;;0.67;80.33
5966;BME280;3009;43.224;27.976;2023-01-30T08:01:38;100736.63;;;0.62;81.18
5966;BME280;3009;43.224;27.976;2023-01-30T08:04:06;100745.78;;;0.60;81.57
5966;BME280;3009;43.224;27.976;2023-01-30T08:06:36;100738.81;;;0.53;82.01
5966;BME280;3009;43.224;27.976;2023-01-30T08:09:05;100738.75;;;0.77;82.01
5966;BME280;3009;43.224;27.976;2023-01-30T08:11:34;100728.16;;;0.48;82.30
5966;BME280;3009;43.224;27.976;2023-01-30T08:14:02;100733.38;;;0.60;82.85
5966;BME280;3009;43.224;27.976;2023-01-30T08:16:30;100723.50;;;0.67;82.36
5966;BME280;3009;43.224;27.976;2023-01-30T08:18:59;100728.09;;;0.72;82.28
5966;BME280;3009;43.224;27.976;2023-01-30T08:21:28;100721.00;;;0.73;82.14
5966;BME280;3009;43.224;27.976;2023-01-30T08:23:57;100720.53;;;0.64;81.78
5966;BME280;3009;43.224;27.976;2023-01-30T08:26:27;100728.25;;;0.53;83.15
5966;BME280;3009;43.224;27.976;2023-01-30T08:28:55;100722.25;;;0.70;82.31
5966;BME280;3009;43.224;27.976;2023-01-30T08:31:23;100713.47;;;0.81;81.84
5966;BME280;3009;43.224;27.976;2023-01-30T08:33:51;100712.97;;;0.96;80.86
5966;BME280;3009;43.224;27.976;2023-01-30T08:36:19;100704.75;;;0.93;80.82
5966;BME280;3009;43.224;27.976;2023-01-30T08:38:48;100708.59;;;1.02;80.11
5966;BME280;3009;43.224;27.976;2023-01-30T08:41:17;100698.66;;;0.92;80.72
5966;BME280;3009;43.224;27.976;2023-01-30T08:43:46;100700.13;;;1.00;81.07
5966;BME280;3009;43.224;27.976;2023-01-30T08:46:14;100702.34;;;1.20;79.75
5966;BME280;3009;43.224;27.976;2023-01-30T08:48:43;100696.72;;;1.16;78.07
5966;BME280;3009;43.224;27.976;2023-01-30T08:51:16;100694.72;;;1.23;78.10
5966;BME280;3009;43.224;27.976;2023-01-30T08:53:44;100688.16;;;1.09;77.85
5966;BME280;3009;43.224;27.976;2023-01-30T08:56:12;100688.28;;;1.02;79.74
5966;BME280;3009;43.224;27.976;2023-01-30T08:58:42;100681.94;;;1.32;78.80
5966;BME280;3009;43.224;27.976;2023-01-30T09:01:12;100680.16;;;1.21;79.27
5966;BME280;3009;43.224;27.976;2023-01-30T09:03:40;100671.28;;;1.61;77.59
5966;BME280;3009;43.224;27.976;2023-01-30T09:06:09;100674.03;;;1.66;76.70
5966;BME280;3009;43.224;27.976;2023-01-30T09:08:37;100673.63;;;1.57;77.97
5966;BME280;3009;43.224;27.976;2023-01-30T09:11:05;100666.25;;;1.93;76.73
5966;BME280;3009;43.224;27.976;2023-01-30T09:13:33;100659.78;;;1.84;77.08
5966;BME280;3009;43.224;27.976;2023-01-30T09:16:05;100660.13;;;2.10;75.79
5966;BME280;3009;43.224;27.976;2023-01-30T09:18:37;100647.00;;;2.20;74.50
5966;BME280;3009;43.224;27.976;2023-01-30T09:21:08;100654.34;;;2.13;74.57
5966;BME280;3009;43.224;27.976;2023-01-30T09:23:36;100646.75;;;2.22;74.41
5966;BME280;3009;43.224;27.976;2023-01-30T09:26:04;100636.88;;;2.12;74.53
5966;BME280;3009;43.224;27.976;2023-01-30T09:28:33;100636.88;;;2.12;75.11
5966;BME280;3009;43.224;27.976;2023-01-30T09:31:03;100637.25;;;2.04;76.11
5966;BME280;3009;43.224;27.976;2023-01-30T09:33:32;100626.22;;;2.29;75.41
5966;BME280;3009;43.224;27.976;2023-01-30T09:36:02;100624.19;;;2.14;76.00
5966;BME280;3009;43.224;27.976;2023-01-30T09:38:30;100630.41;;;2.03;76.78
5966;BME280;3009;43.224;27.976;2023-01-30T09:41:13;100616.38;;;2.24;76.44
5966;BME280;3009;43.224;27.976;2023-01-30T09:44:02;100618.84;;;2.31;76.29
5966;BME280;3009;43.224;27.976;2023-01-30T09:46:46;100622.53;;;2.52;76.05
5966;BME280;3009;43.224;27.976;2023-01-30T09:49:25;100609.31;;;2.79;75.08
5966;BME280;3009;43.224;27.976;2023-01-30T09:52:07;100606.81;;;2.95;73.92
5966;BME280;3009;43.224;27.976;2023-01-30T09:54:41;100600.69;;;2.94;73.36
5966;BME280;3009;43.224;27.976;2023-01-30T09:57:16;100596.75;;;2.97;73.56
5966;BME280;3009;43.224;27.976;2023-01-30T09:59:53;100597.59;;;3.03;73.44
5966;BME280;3009;43.224;27.976;2023-01-30T10:02:35;100583.38;;;3.14;72.80
5966;BME280;3009;43.224;27.976;2023-01-30T10:05:07;100577.47;;;3.34;72.57
5966;BME280;3009;43.224;27.976;2023-01-30T10:08:00;100580.41;;;3.43;72.09
5966;BME280;3009;43.224;27.976;2023-01-30T10:10:39;100568.03;;;3.53;71.12
5966;BME280;3009;43.224;27.976;2023-01-30T10:13:30;100568.22;;;3.42;71.84
5966;BME280;3009;43.224;27.976;2023-01-30T10:16:09;100561.06;;;3.42;71.63
5966;BME280;3009;43.224;27.976;2023-01-30T10:18:57;100557.47;;;3.21;72.74
5966;BME280;3009;43.224;27.976;2023-01-30T10:21:38;100555.44;;;3.33;71.79
5966;BME280;3009;43.224;27.976;2023-01-30T10:24:33;100540.44;;;3.12;72.59
5966;BME280;3009;43.224;27.976;2023-01-30T10:27:10;100539.50;;;3.23;71.72
5966;BME280;3009;43.224;27.976;2023-01-30T10:29:43;100548.66;;;3.10;71.46
5966;BME280;3009;43.224;27.976;2023-01-30T10:32:17;100538.66;;;3.17;70.60
5966;BME280;3009;43.224;27.976;2023-01-30T10:34:52;100536.00;;;3.17;71.17
5966;BME280;3009;43.224;27.976;2023-01-30T10:37:23;100528.31;;;3.16;71.63
5966;BME280;3009;43.224;27.976;2023-01-30T10:39:58;100528.88;;;3.23;71.90
5966;BME280;3009;43.224;27.976;2023-01-30T10:42:35;100523.00;;;3.16;72.78
5966;BME280;3009;43.224;27.976;2023-01-30T10:45:11;100526.28;;;2.96;74.66
5966;BME280;3009;43.224;27.976;2023-01-30T10:47:47;100511.84;;;3.14;71.76
5966;BME280;3009;43.224;27.976;2023-01-30T10:50:28;100509.09;;;3.41;72.19
5966;BME280;3009;43.224;27.976;2023-01-30T10:53:03;100506.94;;;3.33;72.04
5966;BME280;3009;43.224;27.976;2023-01-30T10:55:37;100501.97;;;3.42;71.21
5966;BME280;3009;43.224;27.976;2023-01-30T10:58:14;100494.66;;;3.64;70.70
5966;BME280;3009;43.224;27.976;2023-01-30T11:00:49;100488.84;;;3.67;69.93
5966;BME280;3009;43.224;27.976;2023-01-30T11:03:24;100497.84;;;3.66;68.78
5966;BME280;3009;43.224;27.976;2023-01-30T11:05:59;100483.22;;;3.53;68.55
5966;BME280;3009;43.224;27.976;2023-01-30T11:08:29;100480.31;;;3.60;68.33
5966;BME280;3009;43.224;27.976;2023-01-30T11:10:59;100476.63;;;3.66;68.28
5966;BME280;3009;43.224;27.976;2023-01-30T11:13:29;100469.78;;;3.81;66.94
5966;BME280;3009;43.224;27.976;2023-01-30T11:16:01;100471.44;;;3.97;66.79
5966;BME280;3009;43.224;27.976;2023-01-30T11:18:31;100464.59;;;4.22;66.03
5966;BME280;3009;43.224;27.976;2023-01-30T11:21:23;100454.47;;;4.08;66.56
5966;BME280;3009;43.224;27.976;2023-01-30T11:24:15;100445.47;;;4.10;66.59
5966;BME280;3009;43.224;27.976;2023-01-30T11:26:45;100435.38;;;4.27;65.56
5966;BME280;3009;43.224;27.976;2023-01-30T11:29:22;100425.31;;;4.19;64.95
5966;BME280;3009;43.224;27.976;2023-01-30T11:31:52;100421.88;;;4.18;65.08
5966;BME280;3009;43.224;27.976;2023-01-30T11:34:22;100418.91;;;4.04;67.46
5966;BME280;3009;43.224;27.976;2023-01-30T11:36:51;100420.22;;;3.97;68.41
5966;BME280;3009;43.224;27.976;2023-01-30T11:39:22;100419.44;;;3.96;69.02
5966;BME280;3009;43.224;27.976;2023-01-30T11:42:00;100417.78;;;3.75;70.46
5966;BME280;3009;43.224;27.976;2023-01-30T11:44:32;100409.00;;;3.64;71.22
5966;BME280;3009;43.224;27.976;2023-01-30T11:47:05;100412.16;;;3.61;71.61
5966;BME280;3009;43.224;27.976;2023-01-30T11:49:38;100408.22;;;3.68;71.81
5966;BME280;3009;43.224;27.976;2023-01-30T11:52:27;100398.41;;;3.69;72.44
5966;BME280;3009;43.224;27.976;2023-01-30T11:54:59;100391.78;;;3.66;72.64
5966;BME280;3009;43.224;27.976;2023-01-30T11:57:39;100388.59;;;3.69;72.43
5966;BME280;3009;43.224;27.976;2023-01-30T12:00:16;100392.31;;;3.73;68.82
5966;BME280;3009;43.224;27.976;2023-01-30T12:02:47;100388.09;;;3.83;67.21
5966;BME280;3009;43.224;27.976;2023-01-30T12:05:23;100377.00;;;3.91;65.96
5966;BME280;3009;43.224;27.976;2023-01-30T12:08:11;100376.72;;;3.98;65.37
5966;BME280;3009;43.224;27.976;2023-01-30T12:10:41;100374.81;;;3.67;66.06
5966;BME280;3009;43.224;27.976;2023-01-30T12:13:16;100370.59;;;3.71;65.67
5966;BME280;3009;43.224;27.976;2023-01-30T12:15:49;100367.94;;;3.77;65.59
5966;BME280;3009;43.224;27.976;2023-01-30T12:18:24;100364.69;;;3.59;65.34
5966;BME280;3009;43.224;27.976;2023-01-30T12:21:05;100363.91;;;3.64;65.14
5966;BME280;3009;43.224;27.976;2023-01-30T12:23:42;100355.19;;;3.68;66.06
5966;BME280;3009;43.224;27.976;2023-01-30T12:26:16;100360.50;;;3.73;66.57
5966;BME280;3009;43.224;27.976;2023-01-30T12:28:52;100356.81;;;3.80;66.44
5966;BME280;3009;43.224;27.976;2023-01-30T12:31:24;100359.97;;;3.71;66.99
5966;BME280;3009;43.224;27.976;2023-01-30T12:33:53;100350.16;;;3.72;65.67
5966;BME280;3009;43.224;27.976;2023-01-30T12:36:29;100341.91;;;3.58;65.56
5966;BME280;3009;43.224;27.976;2023-01-30T12:39:13;100338.16;;;3.44;65.83
5966;BME280;3009;43.224;27.976;2023-01-30T12:41:54;100334.16;;;3.31;66.74
5966;BME280;3009;43.224;27.976;2023-01-30T12:44:36;100328.25;;;3.13;67.07
5966;BME280;3009;43.224;27.976;2023-01-30T12:47:25;100332.75;;;3.13;67.16
5966;BME280;3009;43.224;27.976;2023-01-30T12:50:08;100329.28;;;3.07;67.21
5966;BME280;3009;43.224;27.976;2023-01-30T12:53:08;100329.00;;;3.04;66.81
5966;BME280;3009;43.224;27.976;2023-01-30T12:55:49;100322.69;;;3.15;67.50
5966;BME280;3009;43.224;27.976;2023-01-30T12:58:23;100326.69;;;3.17;67.91
5966;BME280;3009;43.224;27.976;2023-01-30T13:01:03;100319.03;;;3.26;66.64
5966;BME280;3009;43.224;27.976;2023-01-30T13:03:38;100319.97;;;2.99;67.77
5966;BME280;3009;43.224;27.976;2023-01-30T13:06:28;100318.31;;;2.83;68.66
5966;BME280;3009;43.224;27.976;2023-01-30T13:09:09;100307.66;;;2.73;70.56
5966;BME280;3009;43.224;27.976;2023-01-30T13:11:50;100315.16;;;2.86;70.77
5966;BME280;3009;43.224;27.976;2023-01-30T13:14:27;100314.56;;;2.74;70.25
5966;BME280;3009;43.224;27.976;2023-01-30T13:17:12;100302.44;;;2.83;69.45
5966;BME280;3009;43.224;27.976;2023-01-30T13:19:45;100308.50;;;2.78;67.95
5966;BME280;3009;43.224;27.976;2023-01-30T13:22:21;100308.00;;;2.87;68.14
5966;BME280;3009;43.224;27.976;2023-01-30T13:24:59;100308.81;;;2.87;68.89
5966;BME280;3009;43.224;27.976;2023-01-30T13:27:36;100302.66;;;2.76;69.56
5966;BME280;3009;43.224;27.976;2023-01-30T13:30:11;100305.00;;;2.68;70.37
5966;BME280;3009;43.224;27.976;2023-01-30T13:32:46;100306.31;;;2.65;71.39
5966;BME280;3009;43.224;27.976;2023-01-30T13:35:18;100300.47;;;2.63;71.87